createdAt,value
2023-04-12T00:03:10.215Z,10.50
2023-04-12T00:08:11.772Z,9.00
2023-04-12T00:13:12.782Z,7.50
2023-04-12T00:18:13.742Z,6.40
2023-04-12T00:23:16.522Z,3.80
2023-04-12T00:28:18.992Z,6.80
2023-04-12T00:33:20.023Z,7.70
2023-04-12T00:38:21.184Z,7.60
2023-04-12T00:43:23.231Z,6.70
2023-04-12T00:48:25.729Z,7.70
2023-04-12T00:53:27.571Z,8.70
2023-04-12T00:58:28.529Z,6.20
2023-04-12T01:03:29.967Z,5.30
2023-04-12T01:09:01.559Z,5.00
2023-04-12T01:14:21.640Z,9.40
2023-04-12T01:19:35.216Z,11.30
2023-04-12T01:24:55.246Z,10.20
2023-04-12T01:30:00.670Z,7.10
2023-04-12T01:35:03.934Z,7.90
2023-04-12T01:40:08.469Z,9.40
2023-04-12T01:45:10.025Z,8.80
2023-04-12T01:50:23.118Z,7.30
2023-04-12T01:55:26.076Z,4.40
2023-04-12T02:00:28.255Z,5.80
2023-04-12T02:05:30.658Z,7.40
2023-04-12T02:10:32.864Z,7.70
2023-04-12T02:15:34.101Z,7.50
2023-04-12T02:20:35.330Z,8.40
2023-04-12T02:25:37.876Z,8.60
2023-04-12T02:30:40.902Z,10.10
2023-04-12T02:35:42.819Z,10.80
2023-04-12T02:40:46.933Z,8.10
2023-04-12T02:45:50.026Z,5.00
2023-04-12T02:50:51.115Z,7.00
2023-04-12T02:55:56.647Z,8.70
2023-04-12T03:01:00.375Z,8.10
2023-04-12T03:06:05.632Z,8.00
2023-04-12T03:11:08.070Z,5.80
2023-04-12T03:16:22.769Z,10.50
2023-04-12T03:21:27.638Z,14.00
2023-04-12T03:26:30.543Z,8.30
2023-04-12T03:31:35.921Z,12.10
2023-04-12T03:36:42.254Z,8.30
2023-04-12T03:41:53.971Z,6.20
2023-04-12T03:46:57.563Z,10.30
2023-04-12T03:51:59.092Z,15.10
2023-04-12T03:57:01.377Z,12.00
2023-04-12T04:02:09.796Z,8.30
2023-04-12T04:07:15.789Z,15.00
2023-04-12T04:12:18.805Z,11.70
2023-04-12T04:17:21.465Z,11.10
2023-04-12T04:22:23.205Z,19.90
2023-04-12T04:27:29.788Z,17.40
2023-04-12T04:32:33.286Z,23.00
2023-04-12T04:37:34.989Z,28.20
2023-04-12T04:42:37.742Z,20.60
2023-04-12T04:47:40.511Z,18.60
2023-04-12T04:52:41.753Z,36.10
2023-04-12T04:57:46.576Z,18.40
2023-04-12T05:02:48.789Z,15.80
2023-04-12T05:07:57.480Z,17.00
2023-04-12T05:12:58.798Z,17.90
2023-04-12T05:18:00.237Z,21.70
2023-04-12T05:23:01.871Z,13.50
2023-04-12T05:28:02.881Z,18.80
2023-04-12T05:33:03.969Z,15.20
2023-04-12T05:38:05.618Z,13.70
2023-04-12T05:43:07.802Z,19.70
2023-04-12T05:48:09.092Z,23.70
2023-04-12T05:53:10.140Z,13.00
2023-04-12T05:58:11.175Z,12.60
2023-04-12T06:03:12.404Z,15.20
2023-04-12T06:08:14.137Z,15.30
2023-04-12T06:13:16.342Z,14.80
2023-04-12T06:18:17.665Z,6.70
2023-04-12T06:23:19.805Z,14.20
2023-04-12T06:28:21.558Z,12.50
2023-04-12T06:33:25.416Z,10.00
2023-04-12T06:38:27.191Z,11.40
2023-04-12T06:43:28.171Z,9.40
2023-04-12T06:48:29.241Z,9.70
2023-04-12T06:53:30.567Z,12.40
2023-04-12T06:58:31.603Z,7.70
2023-04-12T07:03:34.680Z,11.00
2023-04-12T07:08:36.041Z,11.30
2023-04-12T07:13:37.388Z,10.60
2023-04-12T07:18:39.234Z,13.30
2023-04-12T07:23:40.473Z,9.90
2023-04-12T07:28:41.439Z,12.70
2023-04-12T07:33:43.689Z,11.70
2023-04-12T07:38:44.942Z,9.20
2023-04-12T07:43:46.072Z,11.90
2023-04-12T07:48:47.075Z,8.20
2023-04-12T07:53:48.140Z,14.00
2023-04-12T07:58:49.097Z,10.50
2023-04-12T08:03:50.172Z,5.50
2023-04-12T08:08:51.286Z,9.80
2023-04-12T08:13:52.732Z,5.30
2023-04-12T08:18:53.706Z,8.10
2023-04-12T08:23:55.801Z,6.20
2023-04-12T08:28:57.673Z,6.80
2023-04-12T08:33:59.281Z,9.50
2023-04-12T08:39:00.674Z,8.50
2023-04-12T08:44:02.679Z,8.90
2023-04-12T08:49:03.817Z,6.80
2023-04-12T08:54:04.975Z,7.00
2023-04-12T08:59:06.267Z,8.10
2023-04-12T09:04:07.523Z,4.90
2023-04-12T09:09:08.914Z,4.40
2023-04-12T09:14:24.393Z,8.80
2023-04-12T09:19:35.686Z,7.40
2023-04-12T09:24:46.731Z,9.30
2023-04-12T09:29:51.323Z,7.20
2023-04-12T09:35:01.604Z,4.60
2023-04-12T09:40:09.900Z,4.30
2023-04-12T09:45:23.134Z,3.40
2023-04-12T09:50:28.882Z,3.50
2023-04-12T09:55:31.335Z,6.10
2023-04-12T10:00:33.615Z,4.70
2023-04-12T10:05:35.868Z,4.00
2023-04-12T10:10:37.591Z,6.90
2023-04-12T10:15:39.676Z,4.80
2023-04-12T10:20:42.945Z,5.70
2023-04-12T10:25:49.789Z,10.00
2023-04-12T10:30:53.975Z,3.40
2023-04-12T10:35:59.553Z,4.90
2023-04-12T10:41:14.244Z,3.60
2023-04-12T10:46:37.651Z,3.40
2023-04-12T10:51:40.309Z,4.10
2023-04-12T10:56:48.458Z,4.60
2023-04-12T11:02:11.736Z,2.50
2023-04-12T11:07:15.393Z,4.70
2023-04-12T11:12:26.468Z,3.20
2023-04-12T11:17:27.702Z,3.70
2023-04-12T11:22:31.143Z,4.20
2023-04-12T11:27:32.294Z,4.70
2023-04-12T11:32:34.490Z,2.60
2023-04-12T11:37:35.921Z,5.70
2023-04-12T11:42:38.947Z,4.90
2023-04-12T11:47:43.702Z,3.30
2023-04-12T11:52:44.988Z,5.50
2023-04-12T11:57:52.989Z,9.30
2023-04-12T12:03:06.649Z,6.30
2023-04-12T12:08:08.674Z,4.40
2023-04-12T12:13:11.436Z,8.70
2023-04-12T12:18:12.621Z,5.90
2023-04-12T12:23:35.736Z,5.90
2023-04-12T12:28:39.667Z,5.20
2023-04-12T12:33:46.789Z,5.30
2023-04-12T12:38:52.430Z,4.90
2023-04-12T12:43:53.435Z,5.20
2023-04-12T12:48:54.599Z,8.40
2023-04-12T12:53:55.846Z,5.10
2023-04-12T12:58:57.176Z,3.40
2023-04-12T13:03:58.413Z,5.00
2023-04-12T13:08:59.893Z,3.20
2023-04-12T13:14:01.202Z,5.00
2023-04-12T13:19:02.195Z,6.60
2023-04-12T13:24:03.190Z,4.50
2023-04-12T13:29:04.441Z,15.20
2023-04-12T13:34:05.491Z,6.00
2023-04-12T13:39:06.801Z,6.40
2023-04-12T13:44:08.002Z,10.80
2023-04-12T13:49:09.014Z,6.70
2023-04-12T13:54:10.726Z,4.10
2023-04-12T13:59:12.048Z,8.60
2023-04-12T14:04:13.065Z,8.10
2023-04-12T14:09:27.800Z,5.00
2023-04-12T14:14:28.737Z,4.50
2023-04-12T14:19:30.309Z,6.30
2023-04-12T14:24:31.320Z,5.20
2023-04-12T14:29:33.571Z,6.40
2023-04-12T14:34:37.393Z,5.40
2023-04-12T14:39:41.060Z,5.90
2023-04-12T14:44:42.027Z,5.90
2023-04-12T14:49:43.156Z,8.50
2023-04-12T14:54:44.042Z,7.90
2023-04-12T14:59:45.466Z,11.40
2023-04-12T15:04:50.398Z,6.50
2023-04-12T15:09:51.480Z,7.20
2023-04-12T15:14:53.271Z,7.70
2023-04-12T15:19:54.680Z,8.40
2023-04-12T15:24:56.120Z,4.50
2023-04-12T15:29:57.905Z,7.80
2023-04-12T15:35:02.826Z,10.20
2023-04-12T15:40:12.830Z,8.20
2023-04-12T15:45:13.907Z,8.70
2023-04-12T15:50:14.933Z,8.50
2023-04-12T15:55:21.125Z,6.00
2023-04-12T16:00:25.583Z,7.90
2023-04-12T16:05:26.906Z,7.00
2023-04-12T16:10:27.973Z,6.20
2023-04-12T16:15:28.919Z,8.10
2023-04-12T16:20:31.011Z,8.70
2023-04-12T16:25:33.145Z,6.40
2023-04-12T16:30:34.489Z,8.70
2023-04-12T16:35:35.938Z,7.40
2023-04-12T16:40:47.136Z,6.30
2023-04-12T16:45:48.509Z,7.00
2023-04-12T16:50:49.488Z,7.50
2023-04-12T16:55:50.767Z,7.00
2023-04-12T17:00:52.710Z,7.20
2023-04-12T17:05:53.886Z,4.10
2023-04-12T17:10:54.852Z,7.00
2023-04-12T17:15:55.995Z,6.80
2023-04-12T17:20:57.998Z,6.20
2023-04-12T17:25:59.058Z,8.50
2023-04-12T17:31:01.828Z,6.80
2023-04-12T17:36:03.734Z,5.70
2023-04-12T17:41:05.862Z,10.90
2023-04-12T17:46:06.882Z,8.00
2023-04-12T17:51:09.168Z,23.00
2023-04-12T17:56:10.124Z,16.10
2023-04-12T18:01:11.224Z,18.60
2023-04-12T18:06:13.145Z,19.60
2023-04-12T18:11:14.081Z,16.80
2023-04-12T18:16:15.251Z,29.00
2023-04-12T18:21:20.329Z,23.10
2023-04-12T18:26:22.467Z,27.20
2023-04-12T18:31:23.816Z,17.70
2023-04-12T18:36:26.494Z,19.80
2023-04-12T18:41:27.767Z,31.50
2023-04-12T18:46:28.991Z,29.00
2023-04-12T18:51:32.023Z,23.80
2023-04-12T18:56:33.006Z,22.50
2023-04-12T19:01:35.054Z,33.90
2023-04-12T19:06:36.338Z,17.40
2023-04-12T19:11:37.720Z,25.70
2023-04-12T19:16:38.827Z,30.80
2023-04-12T19:21:40.337Z,24.80
2023-04-12T19:26:46.215Z,30.10
2023-04-12T19:31:48.848Z,21.90
2023-04-12T19:36:49.945Z,21.80
2023-04-12T19:41:54.193Z,36.30
2023-04-12T19:51:58.315Z,45.80
2023-04-12T19:56:59.506Z,35.00
2023-04-12T20:02:01.039Z,36.70
2023-04-12T20:07:02.217Z,59.70
2023-04-12T20:12:05.890Z,58.10
2023-04-12T20:17:07.320Z,52.20
2023-04-12T20:22:08.391Z,33.70
2023-04-12T20:27:10.702Z,37.10
2023-04-12T20:32:13.520Z,33.50
2023-04-12T20:37:16.227Z,34.20
2023-04-12T20:42:19.917Z,27.40
2023-04-12T20:47:21.702Z,33.10
2023-04-12T20:52:22.913Z,27.20
2023-04-12T20:57:24.959Z,30.70
2023-04-12T21:02:26.105Z,44.90
2023-04-12T21:07:29.325Z,23.00
2023-04-12T21:12:31.519Z,24.00
2023-04-12T21:17:35.226Z,29.60
2023-04-12T21:22:36.296Z,28.30
2023-04-12T21:27:37.767Z,20.30
2023-04-12T21:32:40.332Z,22.10
2023-04-12T21:37:41.709Z,39.50
2023-04-12T21:42:45.386Z,32.50
2023-04-12T21:53:23.226Z,30.30
2023-04-12T21:58:24.181Z,31.40
2023-04-12T22:03:25.640Z,34.30
2023-04-12T22:08:26.740Z,30.70
2023-04-12T22:13:27.839Z,46.90
2023-04-12T22:18:30.969Z,42.20
2023-04-12T22:23:31.969Z,35.90
2023-04-12T22:28:35.575Z,36.80
2023-04-12T22:33:37.427Z,30.90
2023-04-12T22:38:38.537Z,32.80
2023-04-12T22:43:42.645Z,32.20
2023-04-12T22:48:47.410Z,33.90
2023-04-12T22:53:49.650Z,67.30
2023-04-12T22:58:50.640Z,56.00
2023-04-12T23:03:52.067Z,39.70
2023-04-12T23:08:53.525Z,46.40
2023-04-12T23:14:01.073Z,43.30
2023-04-12T23:19:05.594Z,46.90
2023-04-12T23:24:07.425Z,48.50
2023-04-12T23:29:08.487Z,38.40
2023-04-12T23:34:09.455Z,75.10
2023-04-12T23:39:10.983Z,57.70
2023-04-12T23:44:27.298Z,38.00
2023-04-12T23:49:31.059Z,41.30
2023-04-12T23:54:45.665Z,47.00
2023-04-12T23:59:46.605Z,32.90
